Search for airport 
image banner adimage banner adimage banner ad
image banner ad

61L - Engine Co Nr 109

Located in Los Angeles/Van Nuys, United States

ICAO - 61L, IATA -

Data provided by Airmate  

General information

Coordinates: N34°7'51" W118°29'26"
Elevation is 1375 feet MSL.
Magnetic variation is 14° East
View others Airports in California

Operational data

Special qualification required
Current time UTC:
Current local time:
Weather at : KVNY - Van Nuys ( 9 km )
METAR: KVNY 292051Z 14009KT 10SM CLR 35/12 A2987 RMK AO2 SLP104 T03500122 56015
TAF: KVNY 291736Z 2918/3018 VRB03KT P6SM SKC FM291900 14008KT P6SM SKC FM300000 29006KT P6SM SKC FM300700 VRB03KT P6SM SKC
View NOTAMs / SUP AIP / TFR affecting this airport [VIEW]
Communications frequencies: [VIEW]

Runways:

Airport contact information

Address: Los Angeles/Van Nuys United States

Satellite view of 61L